sensor_id;sensor_type;location;lat;lon;timestamp;pressure;altitude;pressure_sealevel;temperature;humidity
84995;BME280;75312;47.528;19.016;2024-03-08T00:00:19;99260.25;;;4.50;92.28
84995;BME280;75312;47.528;19.016;2024-03-08T00:00:52;99257.53;;;4.51;92.04
84995;BME280;75312;47.528;19.016;2024-03-08T00:01:25;99264.91;;;4.58;91.50
84995;BME280;75312;47.528;19.016;2024-03-08T00:01:56;99263.97;;;4.59;91.82
84995;BME280;75312;47.528;19.016;2024-03-08T00:02:26;99254.19;;;4.62;91.72
84995;BME280;75312;47.528;19.016;2024-03-08T00:02:59;99260.03;;;4.66;91.61
84995;BME280;75312;47.528;19.016;2024-03-08T00:03:31;99258.16;;;4.68;91.16
84995;BME280;75312;47.528;19.016;2024-03-08T00:04:03;99271.66;;;4.60;91.33
84995;BME280;75312;47.528;19.016;2024-03-08T00:04:33;99262.31;;;4.58;91.46
84995;BME280;75312;47.528;19.016;2024-03-08T00:05:08;99264.81;;;4.46;91.75
84995;BME280;75312;47.528;19.016;2024-03-08T00:05:39;99264.00;;;4.46;92.00
84995;BME280;75312;47.528;19.016;2024-03-08T00:06:09;99261.91;;;4.51;92.26
84995;BME280;75312;47.528;19.016;2024-03-08T00:06:42;99266.69;;;4.57;92.15
84995;BME280;75312;47.528;19.016;2024-03-08T00:07:16;99264.69;;;4.61;91.46
84995;BME280;75312;47.528;19.016;2024-03-08T00:07:46;99266.88;;;4.67;91.27
84995;BME280;75312;47.528;19.016;2024-03-08T00:08:17;99264.28;;;4.67;91.04
84995;BME280;75312;47.528;19.016;2024-03-08T00:08:48;99261.38;;;4.59;91.45
84995;BME280;75312;47.528;19.016;2024-03-08T00:09:18;99257.53;;;4.51;91.40
84995;BME280;75312;47.528;19.016;2024-03-08T00:09:49;99260.88;;;4.41;91.86
84995;BME280;75312;47.528;19.016;2024-03-08T00:10:22;99259.00;;;4.43;92.35
84995;BME280;75312;47.528;19.016;2024-03-08T00:10:53;99264.38;;;4.52;92.20
84995;BME280;75312;47.528;19.016;2024-03-08T00:11:26;99261.69;;;4.41;91.75
84995;BME280;75312;47.528;19.016;2024-03-08T00:11:57;99257.22;;;4.43;91.64
84995;BME280;75312;47.528;19.016;2024-03-08T00:12:28;99258.19;;;4.55;91.73
84995;BME280;75312;47.528;19.016;2024-03-08T00:12:58;99270.94;;;4.58;91.17
84995;BME280;75312;47.528;19.016;2024-03-08T00:13:32;99265.72;;;4.45;91.72
84995;BME280;75312;47.528;19.016;2024-03-08T00:14:02;99269.25;;;4.44;91.69
84995;BME280;75312;47.528;19.016;2024-03-08T00:14:39;99264.72;;;4.48;92.04
84995;BME280;75312;47.528;19.016;2024-03-08T00:15:17;99264.50;;;4.38;92.34
84995;BME280;75312;47.528;19.016;2024-03-08T00:15:47;99257.97;;;4.33;92.26
84995;BME280;75312;47.528;19.016;2024-03-08T00:16:18;99256.72;;;4.26;92.55
84995;BME280;75312;47.528;19.016;2024-03-08T00:16:49;99261.41;;;4.33;92.46
84995;BME280;75312;47.528;19.016;2024-03-08T00:17:21;99263.88;;;4.47;92.13
84995;BME280;75312;47.528;19.016;2024-03-08T00:17:55;99262.72;;;4.51;92.04
84995;BME280;75312;47.528;19.016;2024-03-08T00:18:26;99263.25;;;4.44;91.78
84995;BME280;75312;47.528;19.016;2024-03-08T00:18:56;99258.78;;;4.59;92.19
84995;BME280;75312;47.528;19.016;2024-03-08T00:19:27;99261.91;;;4.51;91.72
84995;BME280;75312;47.528;19.016;2024-03-08T00:19:58;99259.94;;;4.55;91.94
84995;BME280;75312;47.528;19.016;2024-03-08T00:20:31;99262.84;;;4.50;91.58
84995;BME280;75312;47.528;19.016;2024-03-08T00:21:02;99265.94;;;4.42;92.04
84995;BME280;75312;47.528;19.016;2024-03-08T00:21:32;99264.94;;;4.32;92.36
84995;BME280;75312;47.528;19.016;2024-03-08T00:22:06;99261.94;;;4.38;92.83
84995;BME280;75312;47.528;19.016;2024-03-08T00:22:41;99267.19;;;4.49;92.38
84995;BME280;75312;47.528;19.016;2024-03-08T00:23:11;99261.69;;;4.41;91.75
84995;BME280;75312;47.528;19.016;2024-03-08T00:23:42;99256.81;;;4.37;92.29
84995;BME280;75312;47.528;19.016;2024-03-08T00:24:13;99260.34;;;4.36;92.28
84995;BME280;75312;47.528;19.016;2024-03-08T00:24:43;99257.97;;;4.33;92.45
84995;BME280;75312;47.528;19.016;2024-03-08T00:25:14;99258.69;;;4.35;92.91
84995;BME280;75312;47.528;19.016;2024-03-08T00:25:45;99259.81;;;4.43;92.84
84995;BME280;75312;47.528;19.016;2024-03-08T00:26:16;99253.41;;;4.49;92.35
84995;BME280;75312;47.528;19.016;2024-03-08T00:26:48;99258.69;;;4.47;92.39
84995;BME280;75312;47.528;19.016;2024-03-08T00:27:21;99259.72;;;4.45;92.57
84995;BME280;75312;47.528;19.016;2024-03-08T00:27:52;99253.31;;;4.38;92.32
84995;BME280;75312;47.528;19.016;2024-03-08T00:28:26;99255.09;;;4.37;92.54
84995;BME280;75312;47.528;19.016;2024-03-08T00:28:58;99260.16;;;4.39;92.94
84995;BME280;75312;47.528;19.016;2024-03-08T00:29:32;99254.22;;;4.49;92.76
84995;BME280;75312;47.528;19.016;2024-03-08T00:30:05;99248.94;;;4.51;92.29
84995;BME280;75312;47.528;19.016;2024-03-08T00:30:36;99255.47;;;4.57;92.37
84995;BME280;75312;47.528;19.016;2024-03-08T00:31:10;99256.72;;;4.51;91.97
84995;BME280;75312;47.528;19.016;2024-03-08T00:31:46;99257.53;;;4.51;92.44
84995;BME280;75312;47.528;19.016;2024-03-08T00:32:16;99255.47;;;4.57;92.04
84995;BME280;75312;47.528;19.016;2024-03-08T00:32:47;99256.69;;;4.76;91.66
84995;BME280;75312;47.528;19.016;2024-03-08T00:33:19;99251.91;;;4.83;90.84
84995;BME280;75312;47.528;19.016;2024-03-08T00:33:49;99255.38;;;4.71;91.28
84995;BME280;75312;47.528;19.016;2024-03-08T00:34:20;99253.78;;;4.68;91.78
84995;BME280;75312;47.528;19.016;2024-03-08T00:34:53;99258.25;;;4.66;91.54
84995;BME280;75312;47.528;19.016;2024-03-08T00:35:24;99256.72;;;4.51;92.18
84995;BME280;75312;47.528;19.016;2024-03-08T00:35:55;99258.28;;;4.41;92.20
84995;BME280;75312;47.528;19.016;2024-03-08T00:36:25;99258.19;;;4.55;93.11
84995;BME280;75312;47.528;19.016;2024-03-08T00:37:03;99255.13;;;4.61;91.90
84995;BME280;75312;47.528;19.016;2024-03-08T00:37:34;99262.06;;;4.86;91.25
84995;BME280;75312;47.528;19.016;2024-03-08T00:38:05;99254.06;;;4.89;90.67
84995;BME280;75312;47.528;19.016;2024-03-08T00:38:35;99252.31;;;4.90;89.70
84995;BME280;75312;47.528;19.016;2024-03-08T00:39:10;99247.78;;;4.68;91.13
84995;BME280;75312;47.528;19.016;2024-03-08T00:39:44;99254.50;;;4.70;91.03
84995;BME280;75312;47.528;19.016;2024-03-08T00:40:20;99255.59;;;4.55;90.95
84995;BME280;75312;47.528;19.016;2024-03-08T00:40:53;99249.97;;;4.48;92.25
84995;BME280;75312;47.528;19.016;2024-03-08T00:41:24;99253.91;;;4.41;92.64
84995;BME280;75312;47.528;19.016;2024-03-08T00:41:56;99254.16;;;4.38;92.59
84995;BME280;75312;47.528;19.016;2024-03-08T00:42:27;99248.75;;;4.41;92.87
84995;BME280;75312;47.528;19.016;2024-03-08T00:42:58;99249.03;;;4.37;93.09
84995;BME280;75312;47.528;19.016;2024-03-08T00:43:28;99251.13;;;4.32;93.05
84995;BME280;75312;47.528;19.016;2024-03-08T00:44:02;99253.91;;;4.29;93.46
84995;BME280;75312;47.528;19.016;2024-03-08T00:44:37;99251.56;;;4.38;93.37
84995;BME280;75312;47.528;19.016;2024-03-08T00:45:08;99253.00;;;4.30;93.20
84995;BME280;75312;47.528;19.016;2024-03-08T00:45:43;99251.25;;;4.30;93.46
84995;BME280;75312;47.528;19.016;2024-03-08T00:46:14;99253.00;;;4.17;93.19
84995;BME280;75312;47.528;19.016;2024-03-08T00:46:47;99246.88;;;4.18;93.73
84995;BME280;75312;47.528;19.016;2024-03-08T00:47:20;99251.97;;;4.32;93.18
84995;BME280;75312;47.528;19.016;2024-03-08T00:47:51;99240.75;;;4.32;93.00
84995;BME280;75312;47.528;19.016;2024-03-08T00:48:22;99249.25;;;4.34;92.87
84995;BME280;75312;47.528;19.016;2024-03-08T00:48:52;99249.06;;;4.24;92.49
84995;BME280;75312;47.528;19.016;2024-03-08T00:49:25;99241.16;;;4.26;92.54
84995;BME280;75312;47.528;19.016;2024-03-08T00:49:58;99249.88;;;4.24;93.18
84995;BME280;75312;47.528;19.016;2024-03-08T00:50:29;99247.59;;;4.20;93.10
84995;BME280;75312;47.528;19.016;2024-03-08T00:50:59;99248.13;;;4.25;93.07
84995;BME280;75312;47.528;19.016;2024-03-08T00:51:30;99248.72;;;4.29;93.35
84995;BME280;75312;47.528;19.016;2024-03-08T00:52:00;99252.88;;;4.44;92.69
84995;BME280;75312;47.528;19.016;2024-03-08T00:52:34;99248.13;;;4.38;92.52
84995;BME280;75312;47.528;19.016;2024-03-08T00:53:05;99249.59;;;4.29;93.03
84995;BME280;75312;47.528;19.016;2024-03-08T00:53:36;99243.97;;;4.22;93.19
84995;BME280;75312;47.528;19.016;2024-03-08T00:54:06;99253.00;;;4.17;93.13
84995;BME280;75312;47.528;19.016;2024-03-08T00:54:37;99247.19;;;4.26;92.76
84995;BME280;75312;47.528;19.016;2024-03-08T00:55:08;99247.28;;;4.24;92.86
84995;BME280;75312;47.528;19.016;2024-03-08T00:55:41;99247.72;;;4.31;92.39
84995;BME280;75312;47.528;19.016;2024-03-08T00:56:12;99249.56;;;4.42;92.70
84995;BME280;75312;47.528;19.016;2024-03-08T00:56:42;99243.97;;;4.48;92.45
84995;BME280;75312;47.528;19.016;2024-03-08T00:57:13;99246.41;;;4.62;91.41
84995;BME280;75312;47.528;19.016;2024-03-08T00:57:43;99250.59;;;4.52;91.41
84995;BME280;75312;47.528;19.016;2024-03-08T00:58:14;99250.06;;;4.60;91.20
84995;BME280;75312;47.528;19.016;2024-03-08T00:58:45;99244.56;;;4.64;91.23
84995;BME280;75312;47.528;19.016;2024-03-08T00:59:16;99253.47;;;4.60;91.33
84995;BME280;75312;47.528;19.016;2024-03-08T00:59:52;99251.06;;;4.70;91.23
84995;BME280;75312;47.528;19.016;2024-03-08T01:00:27;99247.47;;;4.72;91.53
84995;BME280;75312;47.528;19.016;2024-03-08T01:01:00;99246.72;;;4.70;91.43
84995;BME280;75312;47.528;19.016;2024-03-08T01:01:33;99245.50;;;4.63;92.32
84995;BME280;75312;47.528;19.016;2024-03-08T01:02:04;99249.53;;;4.67;92.55
84995;BME280;75312;47.528;19.016;2024-03-08T01:02:35;99245.16;;;4.80;91.52
84995;BME280;75312;47.528;19.016;2024-03-08T01:03:06;99241.41;;;4.85;91.18
84995;BME280;75312;47.528;19.016;2024-03-08T01:03:37;99242.56;;;4.80;91.89
84995;BME280;75312;47.528;19.016;2024-03-08T01:04:07;99246.53;;;4.73;91.67
84995;BME280;75312;47.528;19.016;2024-03-08T01:04:38;99238.09;;;4.83;91.67
84995;BME280;75312;47.528;19.016;2024-03-08T01:05:09;99244.13;;;4.83;91.45
84995;BME280;75312;47.528;19.016;2024-03-08T01:05:39;99240.06;;;4.79;91.58
84995;BME280;75312;47.528;19.016;2024-03-08T01:06:10;99238.09;;;4.70;91.41
84995;BME280;75312;47.528;19.016;2024-03-08T01:06:41;99243.63;;;4.65;91.62
84995;BME280;75312;47.528;19.016;2024-03-08T01:07:15;99243.09;;;4.60;92.28
84995;BME280;75312;47.528;19.016;2024-03-08T01:07:46;99243.81;;;4.75;92.28
84995;BME280;75312;47.528;19.016;2024-03-08T01:08:19;99242.28;;;4.72;91.83
84995;BME280;75312;47.528;19.016;2024-03-08T01:08:49;99240.16;;;4.77;91.15
84995;BME280;75312;47.528;19.016;2024-03-08T01:09:25;99246.63;;;4.72;91.47
84995;BME280;75312;47.528;19.016;2024-03-08T01:09:57;99235.63;;;4.68;92.27
84995;BME280;75312;47.528;19.016;2024-03-08T01:10:27;99244.88;;;4.72;92.14
84995;BME280;75312;47.528;19.016;2024-03-08T01:11:00;99232.06;;;4.82;92.03
84995;BME280;75312;47.528;19.016;2024-03-08T01:11:31;99237.38;;;4.68;92.18
84995;BME280;75312;47.528;19.016;2024-03-08T01:12:01;99243.22;;;4.71;91.50
84995;BME280;75312;47.528;19.016;2024-03-08T01:12:32;99243.22;;;4.71;92.17
84995;BME280;75312;47.528;19.016;2024-03-08T01:13:03;99239.16;;;4.67;92.07
84995;BME280;75312;47.528;19.016;2024-03-08T01:13:35;99243.41;;;4.68;92.41
84995;BME280;75312;47.528;19.016;2024-03-08T01:14:06;99234.69;;;4.69;92.72
84995;BME280;75312;47.528;19.016;2024-03-08T01:14:37;99236.34;;;4.70;92.58
84995;BME280;75312;47.528;19.016;2024-03-08T01:15:08;99237.19;;;4.58;92.41
84995;BME280;75312;47.528;19.016;2024-03-08T01:15:39;99231.25;;;4.69;92.49
84995;BME280;75312;47.528;19.016;2024-03-08T01:16:11;99237.81;;;4.74;92.02
84995;BME280;75312;47.528;19.016;2024-03-08T01:16:45;99238.84;;;4.72;92.02
84995;BME280;75312;47.528;19.016;2024-03-08T01:17:18;99240.50;;;4.60;92.82
84995;BME280;75312;47.528;19.016;2024-03-08T01:17:49;99236.78;;;4.51;92.78
84995;BME280;75312;47.528;19.016;2024-03-08T01:18:20;99235.66;;;4.43;92.35
84995;BME280;75312;47.528;19.016;2024-03-08T01:18:54;99231.59;;;4.51;92.37
84995;BME280;75312;47.528;19.016;2024-03-08T01:19:27;99235.25;;;4.49;92.33
84995;BME280;75312;47.528;19.016;2024-03-08T01:19:58;99228.91;;;4.53;92.88
84995;BME280;75312;47.528;19.016;2024-03-08T01:20:31;99233.38;;;4.51;92.63
84995;BME280;75312;47.528;19.016;2024-03-08T01:21:01;99233.19;;;4.54;92.64
84995;BME280;75312;47.528;19.016;2024-03-08T01:21:32;99233.22;;;4.78;92.68
84995;BME280;75312;47.528;19.016;2024-03-08T01:22:05;99226.47;;;4.75;91.38
84995;BME280;75312;47.528;19.016;2024-03-08T01:22:36;99232.63;;;4.62;92.40
84995;BME280;75312;47.528;19.016;2024-03-08T01:23:06;99230.94;;;4.73;91.95
84995;BME280;75312;47.528;19.016;2024-03-08T01:23:42;99223.69;;;4.66;92.08
84995;BME280;75312;47.528;19.016;2024-03-08T01:24:13;99228.28;;;4.49;92.45
84995;BME280;75312;47.528;19.016;2024-03-08T01:24:47;99229.84;;;4.65;92.25
84995;BME280;75312;47.528;19.016;2024-03-08T01:25:17;99234.31;;;4.63;92.19
84995;BME280;75312;47.528;19.016;2024-03-08T01:25:48;99233.25;;;4.52;91.92
84995;BME280;75312;47.528;19.016;2024-03-08T01:26:19;99229.13;;;4.63;92.32
84995;BME280;75312;47.528;19.016;2024-03-08T01:26:52;99234.91;;;4.66;92.08
84995;BME280;75312;47.528;19.016;2024-03-08T01:27:23;99234.78;;;4.68;91.73
84995;BME280;75312;47.528;19.016;2024-03-08T01:27:55;99236.44;;;4.69;91.62
84995;BME280;75312;47.528;19.016;2024-03-08T01:28:25;99234.78;;;4.80;91.20
84995;BME280;75312;47.528;19.016;2024-03-08T01:28:57;99232.69;;;4.86;90.47
84995;BME280;75312;47.528;19.016;2024-03-08T01:29:29;99235.28;;;4.86;90.95
84995;BME280;75312;47.528;19.016;2024-03-08T01:30:00;99239.53;;;4.87;91.00
84995;BME280;75312;47.528;19.016;2024-03-08T01:30:33;99236.72;;;4.90;90.88
84995;BME280;75312;47.528;19.016;2024-03-08T01:31:04;99235.03;;;5.01;90.34
84995;BME280;75312;47.528;19.016;2024-03-08T01:31:36;99238.97;;;4.94;90.10
84995;BME280;75312;47.528;19.016;2024-03-08T01:32:09;99238.50;;;4.89;90.48
84995;BME280;75312;47.528;19.016;2024-03-08T01:32:40;99236.22;;;4.85;90.67
84995;BME280;75312;47.528;19.016;2024-03-08T01:33:10;99236.44;;;4.82;90.85
84995;BME280;75312;47.528;19.016;2024-03-08T01:33:42;99235.72;;;4.79;90.89
84995;BME280;75312;47.528;19.016;2024-03-08T01:34:12;99236.03;;;4.88;91.03
84995;BME280;75312;47.528;19.016;2024-03-08T01:34:45;99234.66;;;4.82;91.23
84995;BME280;75312;47.528;19.016;2024-03-08T01:35:16;99236.03;;;4.88;91.06
84995;BME280;75312;47.528;19.016;2024-03-08T01:35:46;99234.25;;;4.88;90.74
84995;BME280;75312;47.528;19.016;2024-03-08T01:36:18;99234.34;;;4.87;91.01
84995;BME280;75312;47.528;19.016;2024-03-08T01:36:49;99238.31;;;4.79;91.38
84995;BME280;75312;47.528;19.016;2024-03-08T01:37:23;99241.63;;;4.82;91.04
84995;BME280;75312;47.528;19.016;2024-03-08T01:37:54;99237.16;;;4.84;90.50
84995;BME280;75312;47.528;19.016;2024-03-08T01:38:25;99242.56;;;4.80;91.27
84995;BME280;75312;47.528;19.016;2024-03-08T01:38:55;99238.69;;;4.86;90.94
84995;BME280;75312;47.528;19.016;2024-03-08T01:39:29;99235.53;;;5.06;90.00
84995;BME280;75312;47.528;19.016;2024-03-08T01:39:59;99237.41;;;5.04;89.76
84995;BME280;75312;47.528;19.016;2024-03-08T01:40:30;99243.03;;;4.98;89.56
84995;BME280;75312;47.528;19.016;2024-03-08T01:41:03;99237.97;;;4.84;89.71
84995;BME280;75312;47.528;19.016;2024-03-08T01:41:34;99239.75;;;4.84;89.82
84995;BME280;75312;47.528;19.016;2024-03-08T01:42:05;99236.72;;;4.90;89.93
84995;BME280;75312;47.528;19.016;2024-03-08T01:42:36;99235.56;;;4.94;89.77
84995;BME280;75312;47.528;19.016;2024-03-08T01:43:17;99234.03;;;4.91;89.89
84995;BME280;75312;47.528;19.016;2024-03-08T01:43:48;99240.75;;;4.94;90.25
84995;BME280;75312;47.528;19.016;2024-03-08T01:44:20;99237.22;;;4.95;90.20
84995;BME280;75312;47.528;19.016;2024-03-08T01:44:51;99240.34;;;4.87;90.21
84995;BME280;75312;47.528;19.016;2024-03-08T01:45:21;99237.56;;;4.90;90.27
84995;BME280;75312;47.528;19.016;2024-03-08T01:45:52;99239.22;;;4.91;90.21
84995;BME280;75312;47.528;19.016;2024-03-08T01:46:25;99236.56;;;4.80;90.42
84995;BME280;75312;47.528;19.016;2024-03-08T01:46:59;99241.09;;;4.89;91.03
84995;BME280;75312;47.528;19.016;2024-03-08T01:47:29;99232.94;;;5.06;90.04
84995;BME280;75312;47.528;19.016;2024-03-08T01:48:03;99236.06;;;4.99;89.48
84995;BME280;75312;47.528;19.016;2024-03-08T01:48:34;99227.78;;;4.94;90.08
84995;BME280;75312;47.528;19.016;2024-03-08T01:49:07;99234.78;;;4.80;90.12
84995;BME280;75312;47.528;19.016;2024-03-08T01:49:41;99231.03;;;4.85;90.17
84995;BME280;75312;47.528;19.016;2024-03-08T01:50:17;99236.16;;;4.73;90.52
84995;BME280;75312;47.528;19.016;2024-03-08T01:50:50;99229.78;;;4.77;91.03
84995;BME280;75312;47.528;19.016;2024-03-08T01:51:23;99230.63;;;4.78;91.14
84995;BME280;75312;47.528;19.016;2024-03-08T01:51:55;99232.38;;;4.77;91.27
84995;BME280;75312;47.528;19.016;2024-03-08T01:52:28;99229.84;;;4.65;90.88
84995;BME280;75312;47.528;19.016;2024-03-08T01:53:03;99227.41;;;4.74;90.92
84995;BME280;75312;47.528;19.016;2024-03-08T01:53:35;99234.97;;;4.90;90.79
84995;BME280;75312;47.528;19.016;2024-03-08T01:54:09;99225.94;;;4.83;89.47
84995;BME280;75312;47.528;19.016;2024-03-08T01:54:44;99224.47;;;4.92;89.61
84995;BME280;75312;47.528;19.016;2024-03-08T01:55:17;99230.06;;;4.86;89.40
84995;BME280;75312;47.528;19.016;2024-03-08T01:55:56;99232.19;;;4.80;89.88
84995;BME280;75312;47.528;19.016;2024-03-08T01:56:28;99231.13;;;4.83;90.15
84995;BME280;75312;47.528;19.016;2024-03-08T01:57:01;99230.53;;;4.79;90.10
84995;BME280;75312;47.528;19.016;2024-03-08T01:57:37;99231.16;;;4.70;89.70
84995;BME280;75312;47.528;19.016;2024-03-08T01:58:10;99230.31;;;4.70;90.58
84995;BME280;75312;47.528;19.016;2024-03-08T01:58:44;99226.81;;;4.71;90.34
84995;BME280;75312;47.528;19.016;2024-03-08T01:59:17;99232.63;;;4.62;90.88
84995;BME280;75312;47.528;19.016;2024-03-08T01:59:48;99229.84;;;4.65;91.03
84995;BME280;75312;47.528;19.016;2024-03-08T02:00:20;99231.25;;;4.69;90.44
84995;BME280;75312;47.528;19.016;2024-03-08T02:00:54;99232.59;;;4.74;90.23
84995;BME280;75312;47.528;19.016;2024-03-08T02:01:27;99233.56;;;4.73;90.10
84995;BME280;75312;47.528;19.016;2024-03-08T02:02:02;99232.50;;;4.76;89.77
84995;BME280;75312;47.528;19.016;2024-03-08T02:02:42;99237.34;;;4.93;89.49
84995;BME280;75312;47.528;19.016;2024-03-08T02:03:16;99237.69;;;4.76;89.98
84995;BME280;75312;47.528;19.016;2024-03-08T02:03:49;99227.88;;;5.05;89.28
84995;BME280;75312;47.528;19.016;2024-03-08T02:04:20;99235.56;;;4.94;88.14
84995;BME280;75312;47.528;19.016;2024-03-08T02:04:51;99235.31;;;4.73;89.51
84995;BME280;75312;47.528;19.016;2024-03-08T02:05:23;99233.44;;;4.75;89.30
84995;BME280;75312;47.528;19.016;2024-03-08T02:05:56;99236.44;;;4.69;90.09
84995;BME280;75312;47.528;19.016;2024-03-08T02:06:26;99232.19;;;4.68;89.31
84995;BME280;75312;47.528;19.016;2024-03-08T02:06:59;99232.50;;;4.76;89.30
84995;BME280;75312;47.528;19.016;2024-03-08T02:07:35;99233.69;;;4.96;88.85
84995;BME280;75312;47.528;19.016;2024-03-08T02:08:07;99236.22;;;4.85;88.92
84995;BME280;75312;47.528;19.016;2024-03-08T02:08:43;99226.69;;;5.09;88.54
84995;BME280;75312;47.528;19.016;2024-03-08T02:09:16;99228.16;;;5.13;88.07
84995;BME280;75312;47.528;19.016;2024-03-08T02:09:47;99234.06;;;5.15;87.48
84995;BME280;75312;47.528;19.016;2024-03-08T02:10:18;99226.16;;;4.80;88.75
84995;BME280;75312;47.528;19.016;2024-03-08T02:10:52;99227.94;;;4.79;89.22
84995;BME280;75312;47.528;19.016;2024-03-08T02:11:25;99235.81;;;4.78;89.21
84995;BME280;75312;47.528;19.016;2024-03-08T02:11:58;99231.97;;;4.84;89.18
84995;BME280;75312;47.528;19.016;2024-03-08T02:12:29;99237.38;;;4.80;89.51
84995;BME280;75312;47.528;19.016;2024-03-08T02:13:03;99232.00;;;4.71;90.18
84995;BME280;75312;47.528;19.016;2024-03-08T02:13:34;99235.63;;;4.68;90.28
84995;BME280;75312;47.528;19.016;2024-03-08T02:14:05;99234.97;;;4.77;89.90
84995;BME280;75312;47.528;19.016;2024-03-08T02:14:37;99234.88;;;4.79;89.97
84995;BME280;75312;47.528;19.016;2024-03-08T02:15:10;99235.91;;;4.76;90.20
84995;BME280;75312;47.528;19.016;2024-03-08T02:15:53;99238.63;;;4.75;90.23
84995;BME280;75312;47.528;19.016;2024-03-08T02:16:24;99237.88;;;4.86;90.02
84995;BME280;75312;47.528;19.016;2024-03-08T02:17:03;99238.31;;;4.79;89.98
84995;BME280;75312;47.528;19.016;2024-03-08T02:17:35;99232.56;;;4.87;89.42
84995;BME280;75312;47.528;19.016;2024-03-08T02:18:05;99243.94;;;4.73;90.04
84995;BME280;75312;47.528;19.016;2024-03-08T02:18:36;99240.50;;;4.73;90.10
84995;BME280;75312;47.528;19.016;2024-03-08T02:19:07;99240.69;;;4.70;90.13
84995;BME280;75312;47.528;19.016;2024-03-08T02:19:40;99239.78;;;4.71;90.53
84995;BME280;75312;47.528;19.016;2024-03-08T02:20:11;99243.94;;;4.73;90.53
84995;BME280;75312;47.528;19.016;2024-03-08T02:20:43;99236.63;;;4.78;90.26
84995;BME280;75312;47.528;19.016;2024-03-08T02:21:17;99239.84;;;4.82;90.23
84995;BME280;75312;47.528;19.016;2024-03-08T02:21:48;99243.09;;;4.73;90.46
84995;BME280;75312;47.528;19.016;2024-03-08T02:22:19;99246.53;;;4.73;90.61
84995;BME280;75312;47.528;19.016;2024-03-08T02:22:50;99239.03;;;4.82;90.16
84995;BME280;75312;47.528;19.016;2024-03-08T02:23:21;99246.53;;;4.73;90.15
84995;BME280;75312;47.528;19.016;2024-03-08T02:23:55;99241.28;;;4.86;89.83
84995;BME280;75312;47.528;19.016;2024-03-08T02:24:26;99239.31;;;4.90;89.13
84995;BME280;75312;47.528;19.016;2024-03-08T02:24:58;99239.22;;;4.78;89.39
84995;BME280;75312;47.528;19.016;2024-03-08T02:25:28;99240.22;;;4.65;89.55
84995;BME280;75312;47.528;19.016;2024-03-08T02:26:00;99234.78;;;4.68;90.10
84995;BME280;75312;47.528;19.016;2024-03-08T02:26:34;99240.16;;;4.77;89.38
84995;BME280;75312;47.528;19.016;2024-03-08T02:27:05;99238.91;;;4.83;89.48
84995;BME280;75312;47.528;19.016;2024-03-08T02:27:39;99240.25;;;4.89;88.86
84995;BME280;75312;47.528;19.016;2024-03-08T02:28:13;99240.56;;;4.84;89.09
84995;BME280;75312;47.528;19.016;2024-03-08T02:28:45;99232.91;;;4.83;89.37
84995;BME280;75312;47.528;19.016;2024-03-08T02:29:16;99238.69;;;4.99;88.66
84995;BME280;75312;47.528;19.016;2024-03-08T02:29:48;99237.44;;;4.92;88.96
84995;BME280;75312;47.528;19.016;2024-03-08T02:30:18;99249.72;;;4.90;88.76
84995;BME280;75312;47.528;19.016;2024-03-08T02:30:52;99238.38;;;4.91;88.92
84995;BME280;75312;47.528;19.016;2024-03-08T02:31:26;99235.59;;;4.81;89.09
84995;BME280;75312;47.528;19.016;2024-03-08T02:31:59;99233.69;;;4.96;88.85
84995;BME280;75312;47.528;19.016;2024-03-08T02:32:29;99239.22;;;4.78;89.06
84995;BME280;75312;47.528;19.016;2024-03-08T02:33:01;99242.47;;;4.82;89.44
84995;BME280;75312;47.528;19.016;2024-03-08T02:33:31;99242.38;;;4.71;89.70
84995;BME280;75312;47.528;19.016;2024-03-08T02:34:03;99235.91;;;4.76;89.75
84995;BME280;75312;47.528;19.016;2024-03-08T02:34:33;99237.69;;;4.76;89.90
84995;BME280;75312;47.528;19.016;2024-03-08T02:35:07;99230.84;;;4.62;90.07
84995;BME280;75312;47.528;19.016;2024-03-08T02:35:37;99233.44;;;4.62;90.53
84995;BME280;75312;47.528;19.016;2024-03-08T02:36:10;99239.16;;;4.67;89.99
84995;BME280;75312;47.528;19.016;2024-03-08T02:36:42;99237.28;;;4.69;90.26
84995;BME280;75312;47.528;19.016;2024-03-08T02:37:12;99236.56;;;4.67;90.17
84995;BME280;75312;47.528;19.016;2024-03-08T02:37:43;99229.84;;;4.65;90.20
84995;BME280;75312;47.528;19.016;2024-03-08T02:38:15;99231.16;;;4.70;90.29
84995;BME280;75312;47.528;19.016;2024-03-08T02:38:49;99230.66;;;4.65;90.82
84995;BME280;75312;47.528;19.016;2024-03-08T02:39:22;99236.91;;;4.63;90.81
84995;BME280;75312;47.528;19.016;2024-03-08T02:39:52;99233.97;;;4.67;90.44
84995;BME280;75312;47.528;19.016;2024-03-08T02:40:25;99227.53;;;4.60;88.93
84995;BME280;75312;47.528;19.016;2024-03-08T02:40:56;99227.72;;;4.70;89.49
84995;BME280;75312;47.528;19.016;2024-03-08T02:41:29;99228.00;;;4.54;88.60
84995;BME280;75312;47.528;19.016;2024-03-08T02:41:59;99235.88;;;4.40;89.31
84995;BME280;75312;47.528;19.016;2024-03-08T02:42:32;99238.44;;;4.65;89.50
84995;BME280;75312;47.528;19.016;2024-03-08T02:43:03;99232.13;;;4.57;88.68
84995;BME280;75312;47.528;19.016;2024-03-08T02:43:35;99229.34;;;4.47;89.44
84995;BME280;75312;47.528;19.016;2024-03-08T02:44:08;99234.41;;;4.48;89.91
84995;BME280;75312;47.528;19.016;2024-03-08T02:44:42;99238.56;;;4.51;90.28
84995;BME280;75312;47.528;19.016;2024-03-08T02:45:14;99234.91;;;4.66;90.47
84995;BME280;75312;47.528;19.016;2024-03-08T02:45:47;99236.22;;;4.85;89.36
84995;BME280;75312;47.528;19.016;2024-03-08T02:46:17;99238.91;;;4.83;89.42
84995;BME280;75312;47.528;19.016;2024-03-08T02:46:48;99233.97;;;4.80;88.82
84995;BME280;75312;47.528;19.016;2024-03-08T02:47:20;99231.25;;;4.69;89.16
84995;BME280;75312;47.528;19.016;2024-03-08T02:47:53;99236.69;;;4.66;89.53
84995;BME280;75312;47.528;19.016;2024-03-08T02:48:23;99236.44;;;4.69;90.25
84995;BME280;75312;47.528;19.016;2024-03-08T02:48:54;99238.09;;;4.70;89.72
84995;BME280;75312;47.528;19.016;2024-03-08T02:49:25;99240.31;;;4.63;90.30
84995;BME280;75312;47.528;19.016;2024-03-08T02:49:58;99246.88;;;4.56;90.38